sensor_id;sensor_type;location;lat;lon;timestamp;P1;durP1;ratioP1;P2;durP2;ratioP2
49582;SDS011;36329;48.816;44.624;2024-03-02T00:01:26;6.8;;;2.2;;
49582;SDS011;36329;48.816;44.624;2024-03-02T00:04:28;4.5;;;1.9;;
49582;SDS011;36329;48.816;44.624;2024-03-02T00:07:30;6.5;;;2.1;;
49582;SDS011;36329;48.816;44.624;2024-03-02T00:10:34;4.8;;;2.3;;
49582;SDS011;36329;48.816;44.624;2024-03-02T00:13:39;4.4;;;1.9;;
49582;SDS011;36329;48.816;44.624;2024-03-02T00:16:41;5.9;;;2;;
49582;SDS011;36329;48.816;44.624;2024-03-02T00:19:44;9.7;;;2;;
49582;SDS011;36329;48.816;44.624;2024-03-02T00:22:46;3.7;;;2.2;;
49582;SDS011;36329;48.816;44.624;2024-03-02T00:25:49;4.4;;;2;;
49582;SDS011;36329;48.816;44.624;2024-03-02T00:28:52;3.2;;;1.8;;
49582;SDS011;36329;48.816;44.624;2024-03-02T00:31:57;5.6;;;1.8;;
49582;SDS011;36329;48.816;44.624;2024-03-02T00:35:00;5.3;;;2;;
49582;SDS011;36329;48.816;44.624;2024-03-02T00:38:04;5;;;2;;
49582;SDS011;36329;48.816;44.624;2024-03-02T00:41:06;5.7;;;2.2;;
49582;SDS011;36329;48.816;44.624;2024-03-02T00:44:09;5.9;;;1.9;;
49582;SDS011;36329;48.816;44.624;2024-03-02T00:47:14;7.5;;;2.2;;
49582;SDS011;36329;48.816;44.624;2024-03-02T00:50:16;4.8;;;2.2;;
49582;SDS011;36329;48.816;44.624;2024-03-02T00:53:20;6.5;;;2.4;;
49582;SDS011;36329;48.816;44.624;2024-03-02T00:56:26;5.7;;;2.3;;
49582;SDS011;36329;48.816;44.624;2024-03-02T00:59:28;4.2;;;2.1;;
49582;SDS011;36329;48.816;44.624;2024-03-02T01:02:31;9.5;;;1.9;;
49582;SDS011;36329;48.816;44.624;2024-03-02T01:05:33;6.3;;;2.3;;
49582;SDS011;36329;48.816;44.624;2024-03-02T01:08:35;5.7;;;1.9;;
49582;SDS011;36329;48.816;44.624;2024-03-02T01:11:37;9.3;;;2.4;;
49582;SDS011;36329;48.816;44.624;2024-03-02T01:14:40;9.8;;;2.1;;
49582;SDS011;36329;48.816;44.624;2024-03-02T01:17:42;9.3;;;2.3;;
49582;SDS011;36329;48.816;44.624;2024-03-02T01:20:44;11.3;;;2.2;;
49582;SDS011;36329;48.816;44.624;2024-03-02T01:23:46;4.2;;;2;;
49582;SDS011;36329;48.816;44.624;2024-03-02T01:26:48;6;;;2.2;;
49582;SDS011;36329;48.816;44.624;2024-03-02T01:29:51;9.9;;;2.1;;
49582;SDS011;36329;48.816;44.624;2024-03-02T01:32:53;5.3;;;2.1;;
49582;SDS011;36329;48.816;44.624;2024-03-02T01:35:55;5.8;;;1.8;;
49582;SDS011;36329;48.816;44.624;2024-03-02T01:38:57;6.5;;;1.8;;
49582;SDS011;36329;48.816;44.624;2024-03-02T01:41:59;7.6;;;2;;
49582;SDS011;36329;48.816;44.624;2024-03-02T01:45:02;7.2;;;1.9;;
49582;SDS011;36329;48.816;44.624;2024-03-02T01:48:05;5.7;;;2.3;;
49582;SDS011;36329;48.816;44.624;2024-03-02T01:51:08;8;;;2.1;;
49582;SDS011;36329;48.816;44.624;2024-03-02T01:54:10;10.4;;;2.3;;
49582;SDS011;36329;48.816;44.624;2024-03-02T01:57:13;9.1;;;2.2;;
49582;SDS011;36329;48.816;44.624;2024-03-02T02:00:15;7.9;;;1.9;;
49582;SDS011;36329;48.816;44.624;2024-03-02T02:03:18;10.6;;;2.2;;
49582;SDS011;36329;48.816;44.624;2024-03-02T02:06:20;8.1;;;2;;
49582;SDS011;36329;48.816;44.624;2024-03-02T02:09:22;7.1;;;2.1;;
49582;SDS011;36329;48.816;44.624;2024-03-02T02:12:25;4.9;;;2;;
49582;SDS011;36329;48.816;44.624;2024-03-02T02:15:27;5.2;;;2.1;;
49582;SDS011;36329;48.816;44.624;2024-03-02T02:18:30;13.5;;;2.1;;
49582;SDS011;36329;48.816;44.624;2024-03-02T02:21:32;6.1;;;1.8;;
49582;SDS011;36329;48.816;44.624;2024-03-02T02:24:35;9.9;;;2;;
49582;SDS011;36329;48.816;44.624;2024-03-02T02:27:37;9.2;;;2.2;;
49582;SDS011;36329;48.816;44.624;2024-03-02T02:30:39;9.8;;;2.4;;
49582;SDS011;36329;48.816;44.624;2024-03-02T02:33:42;11;;;2.1;;
49582;SDS011;36329;48.816;44.624;2024-03-02T02:36:44;6.8;;;2.2;;
49582;SDS011;36329;48.816;44.624;2024-03-02T02:39:47;7.7;;;2;;
49582;SDS011;36329;48.816;44.624;2024-03-02T02:42:49;9.5;;;2;;
49582;SDS011;36329;48.816;44.624;2024-03-02T02:45:51;6.6;;;2.2;;
49582;SDS011;36329;48.816;44.624;2024-03-02T02:48:53;9.2;;;2.3;;
49582;SDS011;36329;48.816;44.624;2024-03-02T02:51:55;12;;;2.2;;
49582;SDS011;36329;48.816;44.624;2024-03-02T02:54:58;8;;;2.2;;
49582;SDS011;36329;48.816;44.624;2024-03-02T02:58:01;8.8;;;2.4;;
49582;SDS011;36329;48.816;44.624;2024-03-02T03:01:03;6;;;2.1;;
49582;SDS011;36329;48.816;44.624;2024-03-02T03:04:05;11;;;2.5;;
49582;SDS011;36329;48.816;44.624;2024-03-02T03:07:07;13.9;;;2.3;;
49582;SDS011;36329;48.816;44.624;2024-03-02T03:10:09;10.7;;;2.5;;
49582;SDS011;36329;48.816;44.624;2024-03-02T03:13:12;8.5;;;2.3;;
49582;SDS011;36329;48.816;44.624;2024-03-02T03:16:15;11;;;2.2;;
49582;SDS011;36329;48.816;44.624;2024-03-02T03:19:17;9.3;;;2.1;;
49582;SDS011;36329;48.816;44.624;2024-03-02T03:22:19;9.8;;;2.2;;
49582;SDS011;36329;48.816;44.624;2024-03-02T03:25:21;10;;;2.5;;
49582;SDS011;36329;48.816;44.624;2024-03-02T03:28:24;9.8;;;2.4;;
49582;SDS011;36329;48.816;44.624;2024-03-02T03:31:26;7.3;;;1.9;;
49582;SDS011;36329;48.816;44.624;2024-03-02T03:34:28;8.1;;;2.2;;
49582;SDS011;36329;48.816;44.624;2024-03-02T03:37:30;6.5;;;1.9;;
49582;SDS011;36329;48.816;44.624;2024-03-02T03:40:32;7;;;2.3;;
49582;SDS011;36329;48.816;44.624;2024-03-02T03:43:34;10.5;;;2.1;;
49582;SDS011;36329;48.816;44.624;2024-03-02T03:46:37;9.7;;;2.3;;
49582;SDS011;36329;48.816;44.624;2024-03-02T03:49:39;6.6;;;2.3;;
49582;SDS011;36329;48.816;44.624;2024-03-02T03:52:42;9.2;;;2.3;;
49582;SDS011;36329;48.816;44.624;2024-03-02T03:55:44;8.3;;;2.3;;
49582;SDS011;36329;48.816;44.624;2024-03-02T03:58:46;10.2;;;2.3;;
49582;SDS011;36329;48.816;44.624;2024-03-02T04:01:49;10.2;;;2.4;;
49582;SDS011;36329;48.816;44.624;2024-03-02T04:04:51;10.3;;;2.1;;
49582;SDS011;36329;48.816;44.624;2024-03-02T04:07:53;6.6;;;1.9;;
49582;SDS011;36329;48.816;44.624;2024-03-02T04:10:56;10.2;;;2.3;;
49582;SDS011;36329;48.816;44.624;2024-03-02T04:13:58;6.8;;;2.3;;
49582;SDS011;36329;48.816;44.624;2024-03-02T04:17:00;11.3;;;2.2;;
49582;SDS011;36329;48.816;44.624;2024-03-02T04:20:03;7.4;;;2.2;;
49582;SDS011;36329;48.816;44.624;2024-03-02T04:23:05;10;;;2.3;;
49582;SDS011;36329;48.816;44.624;2024-03-02T04:26:08;6.5;;;2.2;;
49582;SDS011;36329;48.816;44.624;2024-03-02T04:29:10;10.8;;;2.4;;
49582;SDS011;36329;48.816;44.624;2024-03-02T04:32:12;6;;;1.9;;
49582;SDS011;36329;48.816;44.624;2024-03-02T04:35:15;11.8;;;2.2;;
49582;SDS011;36329;48.816;44.624;2024-03-02T04:38:17;9.3;;;2.4;;
49582;SDS011;36329;48.816;44.624;2024-03-02T04:41:19;7.9;;;2.2;;
49582;SDS011;36329;48.816;44.624;2024-03-02T04:44:22;11.7;;;2.4;;
49582;SDS011;36329;48.816;44.624;2024-03-02T04:47:24;8.5;;;2.6;;
49582;SDS011;36329;48.816;44.624;2024-03-02T04:50:26;11.7;;;2.5;;
49582;SDS011;36329;48.816;44.624;2024-03-02T04:53:29;9.1;;;2.3;;
49582;SDS011;36329;48.816;44.624;2024-03-02T04:56:31;11;;;2.2;;
49582;SDS011;36329;48.816;44.624;2024-03-02T04:59:33;9;;;2.4;;
49582;SDS011;36329;48.816;44.624;2024-03-02T05:02:36;8.1;;;2.3;;
49582;SDS011;36329;48.816;44.624;2024-03-02T05:05:39;9.7;;;2.5;;
49582;SDS011;36329;48.816;44.624;2024-03-02T05:08:41;9.6;;;2.3;;
49582;SDS011;36329;48.816;44.624;2024-03-02T05:11:44;13.8;;;2.5;;
49582;SDS011;36329;48.816;44.624;2024-03-02T05:14:46;12.4;;;2.5;;
49582;SDS011;36329;48.816;44.624;2024-03-02T05:17:48;14.5;;;2.5;;
49582;SDS011;36329;48.816;44.624;2024-03-02T05:20:50;13.5;;;2.6;;
49582;SDS011;36329;48.816;44.624;2024-03-02T05:23:53;8.7;;;2.6;;
49582;SDS011;36329;48.816;44.624;2024-03-02T05:26:55;13.7;;;2.7;;
49582;SDS011;36329;48.816;44.624;2024-03-02T05:29:57;8.1;;;2.3;;
49582;SDS011;36329;48.816;44.624;2024-03-02T05:32:59;8;;;2.7;;
49582;SDS011;36329;48.816;44.624;2024-03-02T05:36:02;8.3;;;2.3;;
49582;SDS011;36329;48.816;44.624;2024-03-02T05:39:04;7;;;2.4;;
49582;SDS011;36329;48.816;44.624;2024-03-02T05:42:06;12.7;;;2.7;;
49582;SDS011;36329;48.816;44.624;2024-03-02T05:45:08;11.9;;;2.5;;
49582;SDS011;36329;48.816;44.624;2024-03-02T05:48:10;9.7;;;2.8;;
49582;SDS011;36329;48.816;44.624;2024-03-02T05:51:13;14.7;;;2.7;;
49582;SDS011;36329;48.816;44.624;2024-03-02T05:54:15;12.8;;;2.8;;
49582;SDS011;36329;48.816;44.624;2024-03-02T05:57:17;9.5;;;2.7;;
49582;SDS011;36329;48.816;44.624;2024-03-02T06:00:19;11.6;;;2.8;;
49582;SDS011;36329;48.816;44.624;2024-03-02T06:03:22;15.3;;;3.2;;
49582;SDS011;36329;48.816;44.624;2024-03-02T06:06:24;14;;;2.7;;
49582;SDS011;36329;48.816;44.624;2024-03-02T06:09:27;13.5;;;2.9;;
49582;SDS011;36329;48.816;44.624;2024-03-02T06:12:31;14.3;;;2.8;;
49582;SDS011;36329;48.816;44.624;2024-03-02T06:15:33;14.1;;;2.5;;
49582;SDS011;36329;48.816;44.624;2024-03-02T06:18:35;19.6;;;2.8;;
49582;SDS011;36329;48.816;44.624;2024-03-02T06:21:37;18.5;;;3.1;;
49582;SDS011;36329;48.816;44.624;2024-03-02T06:24:40;16.6;;;2.8;;
49582;SDS011;36329;48.816;44.624;2024-03-02T06:27:42;17.4;;;2.9;;
49582;SDS011;36329;48.816;44.624;2024-03-02T06:30:45;11.1;;;2.4;;
49582;SDS011;36329;48.816;44.624;2024-03-02T06:33:48;17.5;;;2.8;;
49582;SDS011;36329;48.816;44.624;2024-03-02T06:36:50;12.3;;;2.9;;
49582;SDS011;36329;48.816;44.624;2024-03-02T06:39:52;19;;;3.2;;
49582;SDS011;36329;48.816;44.624;2024-03-02T06:42:54;12;;;2.6;;
49582;SDS011;36329;48.816;44.624;2024-03-02T06:45:56;7.5;;;2.5;;
49582;SDS011;36329;48.816;44.624;2024-03-02T06:48:58;14.8;;;2.7;;
49582;SDS011;36329;48.816;44.624;2024-03-02T06:52:01;9.6;;;3.1;;
49582;SDS011;36329;48.816;44.624;2024-03-02T06:55:03;15.3;;;3.1;;
49582;SDS011;36329;48.816;44.624;2024-03-02T06:58:05;9.9;;;2.7;;
49582;SDS011;36329;48.816;44.624;2024-03-02T07:01:08;19.4;;;3.1;;
49582;SDS011;36329;48.816;44.624;2024-03-02T07:04:10;15.1;;;3;;
49582;SDS011;36329;48.816;44.624;2024-03-02T07:07:13;10.5;;;3;;
49582;SDS011;36329;48.816;44.624;2024-03-02T07:10:15;15;;;3.1;;
49582;SDS011;36329;48.816;44.624;2024-03-02T07:13:17;13.3;;;2.8;;
49582;SDS011;36329;48.816;44.624;2024-03-02T07:16:19;10.7;;;2.9;;
49582;SDS011;36329;48.816;44.624;2024-03-02T07:19:21;14.4;;;3;;
49582;SDS011;36329;48.816;44.624;2024-03-02T07:22:24;11.1;;;3;;
49582;SDS011;36329;48.816;44.624;2024-03-02T07:25:26;15.8;;;3.7;;
49582;SDS011;36329;48.816;44.624;2024-03-02T07:28:28;17.8;;;3.2;;
49582;SDS011;36329;48.816;44.624;2024-03-02T07:31:31;14.3;;;3.4;;
49582;SDS011;36329;48.816;44.624;2024-03-02T07:34:33;13.5;;;3.3;;
49582;SDS011;36329;48.816;44.624;2024-03-02T07:37:36;10.6;;;3;;
49582;SDS011;36329;48.816;44.624;2024-03-02T07:40:38;10.9;;;2.8;;
49582;SDS011;36329;48.816;44.624;2024-03-02T07:43:40;10.4;;;2.9;;
49582;SDS011;36329;48.816;44.624;2024-03-02T07:46:42;8.3;;;3.1;;
49582;SDS011;36329;48.816;44.624;2024-03-02T07:49:45;11.9;;;3.1;;
49582;SDS011;36329;48.816;44.624;2024-03-02T07:52:47;15.7;;;3.4;;
49582;SDS011;36329;48.816;44.624;2024-03-02T07:55:49;11.7;;;3.3;;
49582;SDS011;36329;48.816;44.624;2024-03-02T07:58:51;11.1;;;2.9;;
49582;SDS011;36329;48.816;44.624;2024-03-02T08:01:53;12.8;;;2.8;;
49582;SDS011;36329;48.816;44.624;2024-03-02T08:04:55;13.6;;;3.2;;
49582;SDS011;36329;48.816;44.624;2024-03-02T08:07:58;11.5;;;3.1;;
49582;SDS011;36329;48.816;44.624;2024-03-02T08:11:00;12.2;;;2.8;;
49582;SDS011;36329;48.816;44.624;2024-03-02T08:14:02;11.8;;;3.2;;
49582;SDS011;36329;48.816;44.624;2024-03-02T08:17:05;15.6;;;3.2;;
49582;SDS011;36329;48.816;44.624;2024-03-02T08:20:07;12.8;;;3.1;;
49582;SDS011;36329;48.816;44.624;2024-03-02T08:23:11;13.7;;;3;;
49582;SDS011;36329;48.816;44.624;2024-03-02T08:26:13;6.5;;;2.6;;
49582;SDS011;36329;48.816;44.624;2024-03-02T08:29:15;11.1;;;2.7;;
49582;SDS011;36329;48.816;44.624;2024-03-02T08:32:18;11.6;;;3.3;;
49582;SDS011;36329;48.816;44.624;2024-03-02T08:35:21;12.2;;;2.9;;
49582;SDS011;36329;48.816;44.624;2024-03-02T08:38:23;10.6;;;3.1;;
49582;SDS011;36329;48.816;44.624;2024-03-02T08:41:25;12.4;;;3.4;;
49582;SDS011;36329;48.816;44.624;2024-03-02T08:44:27;14.7;;;3.1;;
49582;SDS011;36329;48.816;44.624;2024-03-02T08:47:30;13.8;;;2.9;;
49582;SDS011;36329;48.816;44.624;2024-03-02T08:50:32;11.8;;;3;;
49582;SDS011;36329;48.816;44.624;2024-03-02T08:53:34;7.8;;;2.5;;
49582;SDS011;36329;48.816;44.624;2024-03-02T08:56:36;9;;;2.6;;
49582;SDS011;36329;48.816;44.624;2024-03-02T08:59:39;12.6;;;2.9;;
49582;SDS011;36329;48.816;44.624;2024-03-02T09:02:41;8.5;;;2.9;;
49582;SDS011;36329;48.816;44.624;2024-03-02T09:05:43;10.8;;;2.8;;
49582;SDS011;36329;48.816;44.624;2024-03-02T09:08:46;9.5;;;2.7;;
49582;SDS011;36329;48.816;44.624;2024-03-02T09:11:49;9.1;;;2.5;;
49582;SDS011;36329;48.816;44.624;2024-03-02T09:14:51;7.3;;;2.6;;
49582;SDS011;36329;48.816;44.624;2024-03-02T09:17:53;7.9;;;2.5;;
49582;SDS011;36329;48.816;44.624;2024-03-02T09:20:55;9.4;;;2.9;;
49582;SDS011;36329;48.816;44.624;2024-03-02T09:23:57;7.6;;;2.9;;
49582;SDS011;36329;48.816;44.624;2024-03-02T09:27:00;9.5;;;2.9;;
49582;SDS011;36329;48.816;44.624;2024-03-02T09:30:02;6.9;;;2.8;;
49582;SDS011;36329;48.816;44.624;2024-03-02T09:33:05;9.6;;;2.9;;
49582;SDS011;36329;48.816;44.624;2024-03-02T09:36:16;10.4;;;2.9;;
49582;SDS011;36329;48.816;44.624;2024-03-02T09:39:19;11.4;;;3.2;;
49582;SDS011;36329;48.816;44.624;2024-03-02T09:42:22;12.1;;;3.1;;
49582;SDS011;36329;48.816;44.624;2024-03-02T09:45:25;7.1;;;2.8;;
49582;SDS011;36329;48.816;44.624;2024-03-02T09:48:27;10.4;;;3.2;;
49582;SDS011;36329;48.816;44.624;2024-03-02T09:51:29;12.1;;;3.1;;
49582;SDS011;36329;48.816;44.624;2024-03-02T09:54:32;14.1;;;3.2;;
49582;SDS011;36329;48.816;44.624;2024-03-02T09:57:34;12.2;;;2.9;;
49582;SDS011;36329;48.816;44.624;2024-03-02T10:00:36;10.7;;;2.9;;
49582;SDS011;36329;48.816;44.624;2024-03-02T10:03:38;10.4;;;3.5;;
49582;SDS011;36329;48.816;44.624;2024-03-02T10:06:41;11.2;;;3.4;;
49582;SDS011;36329;48.816;44.624;2024-03-02T10:09:44;12.2;;;3;;
49582;SDS011;36329;48.816;44.624;2024-03-02T10:12:46;9.4;;;3;;
49582;SDS011;36329;48.816;44.624;2024-03-02T10:15:49;12.3;;;3.1;;
49582;SDS011;36329;48.816;44.624;2024-03-02T10:18:51;8.5;;;2.8;;
49582;SDS011;36329;48.816;44.624;2024-03-02T10:21:54;9.2;;;2.5;;
49582;SDS011;36329;48.816;44.624;2024-03-02T10:24:56;11.5;;;2.8;;
49582;SDS011;36329;48.816;44.624;2024-03-02T10:27:58;6.8;;;3;;
49582;SDS011;36329;48.816;44.624;2024-03-02T10:31:01;6.6;;;2.2;;
49582;SDS011;36329;48.816;44.624;2024-03-02T10:34:03;8;;;2.5;;
49582;SDS011;36329;48.816;44.624;2024-03-02T10:37:07;5.9;;;2.3;;
49582;SDS011;36329;48.816;44.624;2024-03-02T10:40:10;4.8;;;2.3;;
49582;SDS011;36329;48.816;44.624;2024-03-02T10:43:13;4.4;;;2.2;;
49582;SDS011;36329;48.816;44.624;2024-03-02T10:46:16;7.7;;;2.1;;
49582;SDS011;36329;48.816;44.624;2024-03-02T10:49:20;5;;;2.1;;
49582;SDS011;36329;48.816;44.624;2024-03-02T10:52:25;5.6;;;2.2;;
49582;SDS011;36329;48.816;44.624;2024-03-02T10:55:27;5;;;2.2;;
49582;SDS011;36329;48.816;44.624;2024-03-02T10:58:31;4.7;;;2.1;;
49582;SDS011;36329;48.816;44.624;2024-03-02T11:01:34;6.8;;;2.2;;
49582;SDS011;36329;48.816;44.624;2024-03-02T11:04:41;5.1;;;2.1;;
49582;SDS011;36329;48.816;44.624;2024-03-02T11:07:44;3.1;;;1.7;;
49582;SDS011;36329;48.816;44.624;2024-03-02T11:10:50;2.6;;;1.5;;
49582;SDS011;36329;48.816;44.624;2024-03-02T11:13:54;2.9;;;1.8;;
49582;SDS011;36329;48.816;44.624;2024-03-02T11:16:59;4.6;;;1.8;;
49582;SDS011;36329;48.816;44.624;2024-03-02T11:20:03;5.1;;;2.7;;
49582;SDS011;36329;48.816;44.624;2024-03-02T11:23:06;6.2;;;3.3;;
49582;SDS011;36329;48.816;44.624;2024-03-02T11:26:17;4.9;;;2.8;;
49582;SDS011;36329;48.816;44.624;2024-03-02T11:32:50;3.8;;;2;;
49582;SDS011;36329;48.816;44.624;2024-03-02T11:35:57;9.1;;;2.5;;
49582;SDS011;36329;48.816;44.624;2024-03-02T11:38:59;4.3;;;2.3;;
49582;SDS011;36329;48.816;44.624;2024-03-02T11:42:02;5;;;2.3;;
49582;SDS011;36329;48.816;44.624;2024-03-02T11:45:04;3.9;;;2.2;;
49582;SDS011;36329;48.816;44.624;2024-03-02T11:48:12;4.2;;;2.3;;
49582;SDS011;36329;48.816;44.624;2024-03-02T11:51:16;5.5;;;2.3;;
49582;SDS011;36329;48.816;44.624;2024-03-02T11:54:18;4.3;;;2.3;;
49582;SDS011;36329;48.816;44.624;2024-03-02T11:57:22;3.7;;;2.3;;
49582;SDS011;36329;48.816;44.624;2024-03-02T12:00:24;3.7;;;2.3;;
49582;SDS011;36329;48.816;44.624;2024-03-02T12:03:26;4.6;;;2.2;;
49582;SDS011;36329;48.816;44.624;2024-03-02T12:06:28;3;;;2;;
49582;SDS011;36329;48.816;44.624;2024-03-02T12:09:31;3.8;;;2.1;;
49582;SDS011;36329;48.816;44.624;2024-03-02T12:12:33;3;;;2.2;;
49582;SDS011;36329;48.816;44.624;2024-03-02T12:15:36;4.9;;;2.6;;
49582;SDS011;36329;48.816;44.624;2024-03-02T12:18:39;5.3;;;2.8;;
49582;SDS011;36329;48.816;44.624;2024-03-02T12:21:43;4.3;;;2.5;;
49582;SDS011;36329;48.816;44.624;2024-03-02T12:24:45;3.8;;;2.1;;
49582;SDS011;36329;48.816;44.624;2024-03-02T12:27:48;8.8;;;2;;
49582;SDS011;36329;48.816;44.624;2024-03-02T12:30:52;3.7;;;2.1;;
49582;SDS011;36329;48.816;44.624;2024-03-02T12:33:54;2.5;;;1.6;;
49582;SDS011;36329;48.816;44.624;2024-03-02T12:36:56;2.6;;;1.7;;
49582;SDS011;36329;48.816;44.624;2024-03-02T12:39:58;3.2;;;1.9;;
49582;SDS011;36329;48.816;44.624;2024-03-02T12:43:01;3.2;;;1.9;;
49582;SDS011;36329;48.816;44.624;2024-03-02T12:46:03;3.4;;;2;;
49582;SDS011;36329;48.816;44.624;2024-03-02T12:49:08;2.7;;;1.9;;
49582;SDS011;36329;48.816;44.624;2024-03-02T12:52:12;4.3;;;2.7;;
49582;SDS011;36329;48.816;44.624;2024-03-02T12:55:14;4.1;;;2.2;;
49582;SDS011;36329;48.816;44.624;2024-03-02T12:58:18;5;;;2.7;;
49582;SDS011;36329;48.816;44.624;2024-03-02T13:01:20;4.3;;;2.2;;
49582;SDS011;36329;48.816;44.624;2024-03-02T13:04:23;3.7;;;1.9;;
49582;SDS011;36329;48.816;44.624;2024-03-02T13:07:25;3.7;;;1.8;;
49582;SDS011;36329;48.816;44.624;2024-03-02T13:10:28;3;;;1.8;;
49582;SDS011;36329;48.816;44.624;2024-03-02T13:13:30;3.3;;;1.8;;
49582;SDS011;36329;48.816;44.624;2024-03-02T13:16:38;2.8;;;2;;
49582;SDS011;36329;48.816;44.624;2024-03-02T13:19:43;3.5;;;1.9;;
49582;SDS011;36329;48.816;44.624;2024-03-02T13:22:53;2.3;;;1.7;;
49582;SDS011;36329;48.816;44.624;2024-03-02T13:25:55;2.1;;;1.4;;
49582;SDS011;36329;48.816;44.624;2024-03-02T13:28:57;2.2;;;1.5;;
49582;SDS011;36329;48.816;44.624;2024-03-02T13:31:59;2.9;;;1.6;;
49582;SDS011;36329;48.816;44.624;2024-03-02T13:35:02;3;;;1.5;;
49582;SDS011;36329;48.816;44.624;2024-03-02T13:38:06;2.4;;;1.1;;
49582;SDS011;36329;48.816;44.624;2024-03-02T13:41:08;2.1;;;1.2;;
49582;SDS011;36329;48.816;44.624;2024-03-02T13:44:10;2.3;;;1.4;;
49582;SDS011;36329;48.816;44.624;2024-03-02T13:47:13;3.3;;;1.7;;
49582;SDS011;36329;48.816;44.624;2024-03-02T13:50:16;2.6;;;1.5;;
49582;SDS011;36329;48.816;44.624;2024-03-02T13:53:18;2.4;;;1.4;;
49582;SDS011;36329;48.816;44.624;2024-03-02T13:56:20;2.7;;;1.4;;
49582;SDS011;36329;48.816;44.624;2024-03-02T13:59:22;3.7;;;1.3;;
49582;SDS011;36329;48.816;44.624;2024-03-02T14:02:24;3;;;1.7;;
49582;SDS011;36329;48.816;44.624;2024-03-02T14:05:27;2.3;;;1.5;;
49582;SDS011;36329;48.816;44.624;2024-03-02T14:08:29;3.5;;;1.6;;
49582;SDS011;36329;48.816;44.624;2024-03-02T14:11:31;3.1;;;1.6;;
49582;SDS011;36329;48.816;44.624;2024-03-02T14:14:33;2.1;;;1.3;;
49582;SDS011;36329;48.816;44.624;2024-03-02T14:17:35;3.8;;;1.9;;
49582;SDS011;36329;48.816;44.624;2024-03-02T14:20:37;4.6;;;2.8;;
49582;SDS011;36329;48.816;44.624;2024-03-02T14:23:40;4.6;;;2.8;;
49582;SDS011;36329;48.816;44.624;2024-03-02T14:26:42;6.8;;;3.8;;
49582;SDS011;36329;48.816;44.624;2024-03-02T14:29:44;6.4;;;3.5;;
49582;SDS011;36329;48.816;44.624;2024-03-02T14:32:46;7.2;;;4;;
49582;SDS011;36329;48.816;44.624;2024-03-02T14:35:48;4.2;;;2.8;;
49582;SDS011;36329;48.816;44.624;2024-03-02T14:38:51;4.4;;;2.7;;
49582;SDS011;36329;48.816;44.624;2024-03-02T14:41:53;5.8;;;3.4;;
49582;SDS011;36329;48.816;44.624;2024-03-02T14:44:55;6.8;;;4;;
49582;SDS011;36329;48.816;44.624;2024-03-02T14:47:57;7.4;;;4.6;;
49582;SDS011;36329;48.816;44.624;2024-03-02T14:50:59;6;;;3.6;;
49582;SDS011;36329;48.816;44.624;2024-03-02T14:54:02;3.7;;;2.4;;
49582;SDS011;36329;48.816;44.624;2024-03-02T14:57:05;4.2;;;2.3;;
49582;SDS011;36329;48.816;44.624;2024-03-02T15:00:07;3.1;;;2;;
49582;SDS011;36329;48.816;44.624;2024-03-02T15:03:10;3.3;;;2;;
49582;SDS011;36329;48.816;44.624;2024-03-02T15:06:12;3.1;;;2;;
49582;SDS011;36329;48.816;44.624;2024-03-02T15:09:14;3.7;;;2.1;;
49582;SDS011;36329;48.816;44.624;2024-03-02T15:12:17;4.1;;;2.2;;
49582;SDS011;36329;48.816;44.624;2024-03-02T15:15:19;4.2;;;2.6;;
49582;SDS011;36329;48.816;44.624;2024-03-02T15:18:21;4.9;;;2.5;;
49582;SDS011;36329;48.816;44.624;2024-03-02T15:21:24;5.3;;;2.5;;
49582;SDS011;36329;48.816;44.624;2024-03-02T15:24:26;4.7;;;2.6;;
49582;SDS011;36329;48.816;44.624;2024-03-02T15:27:29;5;;;2.6;;
49582;SDS011;36329;48.816;44.624;2024-03-02T15:30:31;5.7;;;2.5;;
49582;SDS011;36329;48.816;44.624;2024-03-02T15:33:33;3.6;;;1.9;;
49582;SDS011;36329;48.816;44.624;2024-03-02T15:36:35;4.3;;;1.9;;
49582;SDS011;36329;48.816;44.624;2024-03-02T15:39:38;4.4;;;2.5;;
49582;SDS011;36329;48.816;44.624;2024-03-02T15:42:41;3.3;;;2.1;;
49582;SDS011;36329;48.816;44.624;2024-03-02T15:45:43;4.3;;;2.2;;
49582;SDS011;36329;48.816;44.624;2024-03-02T15:48:45;3.3;;;1.8;;
49582;SDS011;36329;48.816;44.624;2024-03-02T15:51:47;4.6;;;1.8;;
49582;SDS011;36329;48.816;44.624;2024-03-02T15:54:49;3.8;;;2.1;;
49582;SDS011;36329;48.816;44.624;2024-03-02T15:57:52;3.1;;;1.8;;
49582;SDS011;36329;48.816;44.624;2024-03-02T16:00:54;3.5;;;2;;
49582;SDS011;36329;48.816;44.624;2024-03-02T16:03:56;3.4;;;2;;
49582;SDS011;36329;48.816;44.624;2024-03-02T16:06:59;2.8;;;1.8;;
49582;SDS011;36329;48.816;44.624;2024-03-02T16:10:01;3.1;;;1.8;;
49582;SDS011;36329;48.816;44.624;2024-03-02T16:13:04;3.7;;;1.8;;
49582;SDS011;36329;48.816;44.624;2024-03-02T16:16:07;4.6;;;1.9;;
49582;SDS011;36329;48.816;44.624;2024-03-02T16:19:09;2.8;;;1.7;;
49582;SDS011;36329;48.816;44.624;2024-03-02T16:22:11;3.7;;;1.7;;
49582;SDS011;36329;48.816;44.624;2024-03-02T16:25:13;2.5;;;1.6;;
49582;SDS011;36329;48.816;44.624;2024-03-02T16:28:16;3.1;;;1.9;;
49582;SDS011;36329;48.816;44.624;2024-03-02T16:31:18;3.9;;;1.8;;
49582;SDS011;36329;48.816;44.624;2024-03-02T16:34:20;4.7;;;1.8;;
49582;SDS011;36329;48.816;44.624;2024-03-02T16:37:23;2.9;;;1.6;;
49582;SDS011;36329;48.816;44.624;2024-03-02T16:40:25;2.7;;;1.8;;
49582;SDS011;36329;48.816;44.624;2024-03-02T16:43:27;3.5;;;1.8;;
49582;SDS011;36329;48.816;44.624;2024-03-02T16:46:30;4.1;;;2.1;;
49582;SDS011;36329;48.816;44.624;2024-03-02T16:49:32;2.5;;;1.6;;
49582;SDS011;36329;48.816;44.624;2024-03-02T16:52:34;3.1;;;2;;
49582;SDS011;36329;48.816;44.624;2024-03-02T16:55:36;3.6;;;2;;
49582;SDS011;36329;48.816;44.624;2024-03-02T16:58:38;3.8;;;2.2;;
49582;SDS011;36329;48.816;44.624;2024-03-02T17:01:40;4.7;;;2.1;;
49582;SDS011;36329;48.816;44.624;2024-03-02T17:04:43;3.2;;;1.9;;
49582;SDS011;36329;48.816;44.624;2024-03-02T17:07:45;3.6;;;2.1;;
49582;SDS011;36329;48.816;44.624;2024-03-02T17:10:47;3.6;;;2;;
49582;SDS011;36329;48.816;44.624;2024-03-02T17:13:49;5.9;;;2;;
49582;SDS011;36329;48.816;44.624;2024-03-02T17:16:51;3.9;;;2.1;;
49582;SDS011;36329;48.816;44.624;2024-03-02T17:19:53;4.1;;;2.1;;
49582;SDS011;36329;48.816;44.624;2024-03-02T17:22:55;4.5;;;2.4;;
49582;SDS011;36329;48.816;44.624;2024-03-02T17:25:57;4.3;;;2.2;;
49582;SDS011;36329;48.816;44.624;2024-03-02T17:29:00;4.3;;;2.1;;
49582;SDS011;36329;48.816;44.624;2024-03-02T17:32:03;4;;;2.1;;
49582;SDS011;36329;48.816;44.624;2024-03-02T17:35:05;4.8;;;2.2;;
49582;SDS011;36329;48.816;44.624;2024-03-02T17:38:09;3.9;;;1.9;;
49582;SDS011;36329;48.816;44.624;2024-03-02T17:41:11;4.5;;;2.4;;
49582;SDS011;36329;48.816;44.624;2024-03-02T17:44:13;3.9;;;1.9;;
49582;SDS011;36329;48.816;44.624;2024-03-02T17:47:15;3.6;;;2;;
49582;SDS011;36329;48.816;44.624;2024-03-02T17:50:17;2.8;;;1.9;;
49582;SDS011;36329;48.816;44.624;2024-03-02T17:53:19;2.9;;;1.8;;
49582;SDS011;36329;48.816;44.624;2024-03-02T17:56:22;3;;;1.9;;
49582;SDS011;36329;48.816;44.624;2024-03-02T17:59:24;3;;;1.7;;
49582;SDS011;36329;48.816;44.624;2024-03-02T18:02:26;3;;;1.5;;
49582;SDS011;36329;48.816;44.624;2024-03-02T18:05:28;2.8;;;1.6;;
49582;SDS011;36329;48.816;44.624;2024-03-02T18:08:30;2.7;;;1.8;;
49582;SDS011;36329;48.816;44.624;2024-03-02T18:11:32;2.8;;;1.9;;
49582;SDS011;36329;48.816;44.624;2024-03-02T18:14:35;2.2;;;1.5;;
49582;SDS011;36329;48.816;44.624;2024-03-02T18:17:37;2.5;;;1.6;;
49582;SDS011;36329;48.816;44.624;2024-03-02T18:20:39;4.3;;;1.9;;
49582;SDS011;36329;48.816;44.624;2024-03-02T18:23:41;3.2;;;1.7;;
49582;SDS011;36329;48.816;44.624;2024-03-02T18:26:43;2.4;;;1.6;;
49582;SDS011;36329;48.816;44.624;2024-03-02T18:29:46;2.4;;;1.6;;
49582;SDS011;36329;48.816;44.624;2024-03-02T18:32:48;3;;;1.7;;
49582;SDS011;36329;48.816;44.624;2024-03-02T18:35:50;2.9;;;2.1;;
49582;SDS011;36329;48.816;44.624;2024-03-02T18:38:53;4;;;2;;
49582;SDS011;36329;48.816;44.624;2024-03-02T18:41:55;3.4;;;1.8;;